Time,TemperatureF,DewpointF,PressureIn,WindDirection,WindDirectionDegrees,WindSpeedMPH,WindSpeedGustMPH,Humidity,HourlyPrecipIn,Conditions,Clouds,dailyrainin,SoftwareType,DateUTC
2013-12-18 00:01:00,37.1,25.7,30.30,NW,316,4.0,4.0,63,0.00,,,0.00,Wunderground v.1.13,2013-12-18 05:01:00,
2013-12-18 00:02:00,37.0,25.6,30.30,NW,319,4.0,4.0,63,0.00,,,0.00,Wunderground v.1.13,2013-12-18 05:02:00,
2013-12-18 00:03:00,37.0,25.6,30.30,NW,319,4.0,4.0,63,0.00,,,0.00,Wunderground v.1.13,2013-12-18 05:03:00,
2013-12-18 00:04:00,36.9,25.5,30.30,NW,319,4.0,4.0,63,0.00,,,0.00,Wunderground v.1.13,2013-12-18 05:04:00,
2013-12-18 00:05:00,36.9,25.5,30.30,NW,319,4.0,4.0,63,0.00,,,0.00,Wunderground v.1.13,2013-12-18 05:05:00,
2013-12-18 00:10:00,36.6,25.6,30.30,NW,319,3.0,3.0,64,0.00,,,0.00,Wunderground v.1.13,2013-12-18 05:10:00,
2013-12-18 00:16:00,36.4,25.4,30.30,NW,319,1.0,1.0,64,0.00,,,0.00,Wunderground v.1.13,2013-12-18 05:16:00,
2013-12-18 00:21:00,36.1,25.5,30.30,NW,319,1.0,1.0,65,0.00,,,0.00,Wunderground v.1.13,2013-12-18 05:21:00,
2013-12-18 00:27:00,35.7,25.1,30.30,NW,319,0.0,0.0,65,0.00,,,0.00,Wunderground v.1.13,2013-12-18 05:27:00,
2013-12-18 00:33:00,35.4,25.2,30.31,NW,319,1.0,2.0,66,0.00,,,0.00,Wunderground v.1.13,2013-12-18 05:33:00,
2013-12-18 00:38:00,35.2,25.0,30.31,NW,319,1.0,2.0,66,0.00,,,0.00,Wunderground v.1.13,2013-12-18 05:38:00,
2013-12-18 00:44:00,34.9,25.0,30.30,NW,319,2.0,3.0,67,0.00,,,0.00,Wunderground v.1.13,2013-12-18 05:44:00,
2013-12-18 00:50:00,34.7,24.9,30.30,WNW,282,4.0,5.0,67,0.00,,,0.00,Wunderground v.1.13,2013-12-18 05:50:00,
2013-12-18 00:55:00,34.6,24.8,30.30,WNW,283,5.0,5.0,67,0.00,,,0.00,Wunderground v.1.13,2013-12-18 05:55:00,
2013-12-18 01:00:00,34.4,24.9,30.31,WNW,283,4.0,4.0,68,0.00,,,0.00,Wunderground v.1.13,2013-12-18 06:00:00,
2013-12-18 01:06:00,34.4,24.9,30.31,WNW,296,5.0,7.0,68,0.00,,,0.00,Wunderground v.1.13,2013-12-18 06:06:00,
2013-12-18 01:12:00,34.4,24.9,30.31,WNW,300,6.0,7.0,68,0.00,,,0.00,Wunderground v.1.13,2013-12-18 06:12:00,
2013-12-18 01:18:00,34.5,25.0,30.31,NW,309,8.0,10.0,68,0.00,,,0.00,Wunderground v.1.13,2013-12-18 06:18:00,
2013-12-18 01:24:00,34.6,24.8,30.31,WNW,301,8.0,8.0,67,0.00,,,0.00,Wunderground v.1.13,2013-12-18 06:24:00,
2013-12-18 01:30:00,34.4,24.6,30.31,NW,314,6.0,6.0,67,0.00,,,0.00,Wunderground v.1.13,2013-12-18 06:30:00,
2013-12-18 01:36:00,34.3,24.8,30.31,NW,315,5.0,5.0,68,0.00,,,0.00,Wunderground v.1.13,2013-12-18 06:36:00,
2013-12-18 01:41:00,33.9,24.4,30.31,NW,315,3.0,3.0,68,0.00,,,0.00,Wunderground v.1.13,2013-12-18 06:41:00,
2013-12-18 01:47:00,33.5,24.4,30.32,NW,315,2.0,4.0,69,0.00,,,0.00,Wunderground v.1.13,2013-12-18 06:47:00,
2013-12-18 01:53:00,33.2,24.5,30.31,NW,315,1.0,6.0,70,0.00,,,0.00,Wunderground v.1.13,2013-12-18 06:53:00,
2013-12-18 01:58:00,33.0,24.3,30.32,NW,315,1.0,1.0,70,0.00,,,0.00,Wunderground v.1.13,2013-12-18 06:58:00,
2013-12-18 02:04:00,33.0,24.6,30.31,NW,315,1.0,3.0,71,0.00,,,0.00,Wunderground v.1.13,2013-12-18 07:04:00,
2013-12-18 02:10:00,32.9,24.5,30.32,NW,315,0.0,0.0,71,0.00,,,0.00,Wunderground v.1.13,2013-12-18 07:10:00,
2013-12-18 02:16:00,32.8,24.4,30.32,NW,315,0.0,0.0,71,0.00,,,0.00,Wunderground v.1.13,2013-12-18 07:16:00,
2013-12-18 02:21:00,32.6,24.2,30.32,NW,315,1.0,2.0,71,0.00,,,0.00,Wunderground v.1.13,2013-12-18 07:21:00,
2013-12-18 02:27:00,32.3,23.9,30.32,NW,315,1.0,2.0,71,0.00,,,0.00,Wunderground v.1.13,2013-12-18 07:27:00,
2013-12-18 02:33:00,31.9,23.6,30.32,NW,315,2.0,2.0,71,0.00,,,0.00,Wunderground v.1.13,2013-12-18 07:33:00,
2013-12-18 02:38:00,31.5,23.5,30.32,NW,315,1.0,2.0,72,0.00,,,0.00,Wunderground v.1.13,2013-12-18 07:38:00,
2013-12-18 02:44:00,31.2,23.5,30.32,NW,315,0.0,1.0,73,0.00,,,0.00,Wunderground v.1.13,2013-12-18 07:44:00,
2013-12-18 02:49:00,30.8,23.2,30.33,NW,315,0.0,0.0,73,0.00,,,0.00,Wunderground v.1.13,2013-12-18 07:49:00,
2013-12-18 02:55:00,30.5,23.2,30.33,NW,315,0.0,0.0,74,0.00,,,0.00,Wunderground v.1.13,2013-12-18 07:55:00,
2013-12-18 03:01:00,30.1,22.8,30.33,NW,315,0.0,0.0,74,0.00,,,0.00,Wunderground v.1.13,2013-12-18 08:01:00,
2013-12-18 03:07:00,29.7,22.7,30.33,NW,315,0.0,0.0,75,0.00,,,0.00,Wunderground v.1.13,2013-12-18 08:07:00,
2013-12-18 03:12:00,29.3,22.7,30.33,NW,315,0.0,0.0,76,0.00,,,0.00,Wunderground v.1.13,2013-12-18 08:12:00,
2013-12-18 03:18:00,29.0,22.4,30.34,NW,315,0.0,0.0,76,0.00,,,0.00,Wunderground v.1.13,2013-12-18 08:18:00,
2013-12-18 03:23:00,28.7,22.1,30.34,NW,315,0.0,0.0,76,0.00,,,0.00,Wunderground v.1.13,2013-12-18 08:23:00,
2013-12-18 03:29:00,28.4,22.1,30.34,NW,315,0.0,0.0,77,0.00,,,0.00,Wunderground v.1.13,2013-12-18 08:29:00,
2013-12-18 03:35:00,28.1,21.8,30.35,NW,315,0.0,0.0,77,0.00,,,0.00,Wunderground v.1.13,2013-12-18 08:35:00,
2013-12-18 03:41:00,27.8,21.8,30.35,NW,315,0.0,0.0,78,0.00,,,0.00,Wunderground v.1.13,2013-12-18 08:41:00,
2013-12-18 03:46:00,27.6,21.9,30.35,NW,315,0.0,0.0,79,0.00,,,0.00,Wunderground v.1.13,2013-12-18 08:46:00,
2013-12-18 03:52:00,27.4,21.7,30.35,NW,315,0.0,0.0,79,0.00,,,0.00,Wunderground v.1.13,2013-12-18 08:52:00,
2013-12-18 03:57:00,27.2,21.5,30.35,NW,315,0.0,0.0,79,0.00,,,0.00,Wunderground v.1.13,2013-12-18 08:57:00,
2013-12-18 04:03:00,27.0,21.7,30.35,NW,315,0.0,2.0,80,0.00,,,0.00,Wunderground v.1.13,2013-12-18 09:03:00,
2013-12-18 04:09:00,27.2,21.8,30.35,NW,315,1.0,2.0,80,0.00,,,0.00,Wunderground v.1.13,2013-12-18 09:09:00,
2013-12-18 04:15:00,27.4,22.0,30.36,NW,315,1.0,3.0,80,0.00,,,0.00,Wunderground v.1.13,2013-12-18 09:15:00,
2013-12-18 04:20:00,27.6,22.5,30.36,NW,315,0.0,1.0,81,0.00,,,0.00,Wunderground v.1.13,2013-12-18 09:20:00,
2013-12-18 04:26:00,27.8,22.4,30.35,NW,315,0.0,1.0,80,0.00,,,0.00,Wunderground v.1.13,2013-12-18 09:26:00,
2013-12-18 04:31:00,27.8,22.4,30.36,NW,315,0.0,0.0,80,0.00,,,0.00,Wunderground v.1.13,2013-12-18 09:31:00,
2013-12-18 04:37:00,27.9,22.5,30.36,NW,315,1.0,2.0,80,0.00,,,0.00,Wunderground v.1.13,2013-12-18 09:37:00,
2013-12-18 04:43:00,28.0,22.6,30.36,NW,315,1.0,1.0,80,0.00,,,0.00,Wunderground v.1.13,2013-12-18 09:43:00,
2013-12-18 04:49:00,27.9,22.2,30.36,NW,315,0.0,1.0,79,0.00,,,0.00,Wunderground v.1.13,2013-12-18 09:49:00,
2013-12-18 04:54:00,27.9,22.2,30.36,NW,315,1.0,3.0,79,0.00,,,0.00,Wunderground v.1.13,2013-12-18 09:54:00,
2013-12-18 05:00:00,28.0,22.3,30.36,NW,315,1.0,1.0,79,0.00,,,0.00,Wunderground v.1.13,2013-12-18 10:00:00,
2013-12-18 05:05:00,28.2,22.5,30.36,NW,315,1.0,1.0,79,0.00,,,0.00,Wunderground v.1.13,2013-12-18 10:05:00,
2013-12-18 05:10:00,28.2,22.5,30.36,NW,315,1.0,1.0,79,0.00,,,0.00,Wunderground v.1.13,2013-12-18 10:10:00,
2013-12-18 05:16:00,28.1,22.1,30.37,NW,315,0.0,0.0,78,0.00,,,0.00,Wunderground v.1.13,2013-12-18 10:16:00,
2013-12-18 05:22:00,27.9,21.6,30.37,NW,315,0.0,0.0,77,0.00,,,0.00,Wunderground v.1.13,2013-12-18 10:22:00,
2013-12-18 05:28:00,27.5,21.2,30.37,NW,315,0.0,0.0,77,0.00,,,0.00,Wunderground v.1.13,2013-12-18 10:28:00,
2013-12-18 05:33:00,27.2,20.9,30.37,NW,315,0.0,0.0,77,0.00,,,0.00,Wunderground v.1.13,2013-12-18 10:33:00,
2013-12-18 05:39:00,26.7,20.5,30.37,NW,315,0.0,0.0,77,0.00,,,0.00,Wunderground v.1.13,2013-12-18 10:39:00,
2013-12-18 05:44:00,26.3,20.1,30.37,NW,315,0.0,0.0,77,0.00,,,0.00,Wunderground v.1.13,2013-12-18 10:44:00,
2013-12-18 05:50:00,26.0,20.1,30.37,NW,315,0.0,0.0,78,0.00,,,0.00,Wunderground v.1.13,2013-12-18 10:50:00,
2013-12-18 05:56:00,25.7,19.8,30.37,NW,315,0.0,0.0,78,0.00,,,0.00,Wunderground v.1.13,2013-12-18 10:56:00,
2013-12-18 06:01:00,25.5,19.9,30.38,NW,315,0.0,0.0,79,0.00,,,0.00,Wunderground v.1.13,2013-12-18 11:01:00,
2013-12-18 06:07:00,25.2,19.6,30.38,NW,315,0.0,0.0,79,0.00,,,0.00,Wunderground v.1.13,2013-12-18 11:07:00,
2013-12-18 06:13:00,24.9,19.6,30.38,NW,315,0.0,0.0,80,0.00,,,0.00,Wunderground v.1.13,2013-12-18 11:13:00,
2013-12-18 06:16:00,24.8,19.5,30.38,NW,315,0.0,0.0,80,0.00,,,0.00,Wunderground v.1.13,2013-12-18 11:16:00,
2013-12-18 06:22:00,24.5,19.2,30.38,NW,315,0.0,0.0,80,0.00,,,0.00,Wunderground v.1.13,2013-12-18 11:22:00,
2013-12-18 06:27:00,24.3,19.0,30.38,NW,315,0.0,0.0,80,0.00,,,0.00,Wunderground v.1.13,2013-12-18 11:27:00,
2013-12-18 06:32:00,23.9,18.6,30.38,NW,315,0.0,0.0,80,0.00,,,0.00,Wunderground v.1.13,2013-12-18 11:32:00,
2013-12-18 06:38:00,23.6,18.6,30.38,NW,315,0.0,0.0,81,0.00,,,0.00,Wunderground v.1.13,2013-12-18 11:38:00,
2013-12-18 06:43:00,23.4,18.7,30.38,NW,315,0.0,0.0,82,0.00,,,0.00,Wunderground v.1.13,2013-12-18 11:43:00,
2013-12-18 06:49:00,23.3,18.6,30.38,NW,315,0.0,0.0,82,0.00,,,0.00,Wunderground v.1.13,2013-12-18 11:49:00,
2013-12-18 06:55:00,23.0,18.3,30.39,NW,315,0.0,0.0,82,0.00,,,0.00,Wunderground v.1.13,2013-12-18 11:55:00,
2013-12-18 07:00:00,22.8,18.4,30.39,NW,315,0.0,0.0,83,0.00,,,0.00,Wunderground v.1.13,2013-12-18 12:00:00,
2013-12-18 07:06:00,22.5,18.1,30.39,NW,315,0.0,0.0,83,0.00,,,0.00,Wunderground v.1.13,2013-12-18 12:06:00,
2013-12-18 07:12:00,22.3,17.9,30.39,NW,315,0.0,0.0,83,0.00,,,0.00,Wunderground v.1.13,2013-12-18 12:12:00,
2013-12-18 07:17:00,22.2,17.8,30.39,NW,315,0.0,0.0,83,0.00,,,0.00,Wunderground v.1.13,2013-12-18 12:17:00,
2013-12-18 07:23:00,22.0,17.6,30.40,NW,315,0.0,0.0,83,0.00,,,0.00,Wunderground v.1.13,2013-12-18 12:23:00,
2013-12-18 07:28:00,21.8,17.4,30.39,NW,315,0.0,1.0,83,0.00,,,0.00,Wunderground v.1.13,2013-12-18 12:28:00,
2013-12-18 07:34:00,21.6,17.5,30.40,NW,315,0.0,0.0,84,0.00,,,0.00,Wunderground v.1.13,2013-12-18 12:34:00,
2013-12-18 07:39:00,21.6,17.5,30.40,NW,315,0.0,0.0,84,0.00,,,0.00,Wunderground v.1.13,2013-12-18 12:39:00,
2013-12-18 07:45:00,21.5,17.4,30.40,NW,315,0.0,0.0,84,0.00,,,0.00,Wunderground v.1.13,2013-12-18 12:45:00,
2013-12-18 07:51:00,21.4,17.6,30.40,NW,315,0.0,0.0,85,0.00,,,0.00,Wunderground v.1.13,2013-12-18 12:51:00,
2013-12-18 07:56:00,21.3,17.5,30.40,NW,315,0.0,0.0,85,0.00,,,0.00,Wunderground v.1.13,2013-12-18 12:56:00,
2013-12-18 08:02:00,21.2,17.4,30.40,NW,315,0.0,0.0,85,0.00,,,0.00,Wunderground v.1.13,2013-12-18 13:02:00,
2013-12-18 08:08:00,21.0,17.2,30.40,NW,315,0.0,0.0,85,0.00,,,0.00,Wunderground v.1.13,2013-12-18 13:08:00,
2013-12-18 08:14:00,20.9,17.4,30.41,NW,315,0.0,0.0,86,0.00,,,0.00,Wunderground v.1.13,2013-12-18 13:14:00,
2013-12-18 08:20:00,21.2,17.7,30.41,NW,316,0.0,0.0,86,0.00,,,0.00,Wunderground v.1.13,2013-12-18 13:20:00,
2013-12-18 08:26:00,21.5,18.2,30.41,NW,316,0.0,0.0,87,0.00,,,0.00,Wunderground v.1.13,2013-12-18 13:26:00,
2013-12-18 08:31:00,22.1,18.8,30.40,NW,316,0.0,0.0,87,0.00,,,0.00,Wunderground v.1.13,2013-12-18 13:31:00,
2013-12-18 08:37:00,22.8,19.5,30.41,NW,316,0.0,0.0,87,0.00,,,0.00,Wunderground v.1.13,2013-12-18 13:37:00,
2013-12-18 08:43:00,23.9,20.9,30.41,NW,316,0.0,0.0,88,0.00,,,0.00,Wunderground v.1.13,2013-12-18 13:43:00,
2013-12-18 08:49:00,25.2,22.1,30.41,NW,310,0.0,0.0,88,0.00,,,0.00,Wunderground v.1.13,2013-12-18 13:49:00,
2013-12-18 08:54:00,26.1,22.8,30.42,NW,311,0.0,0.0,87,0.00,,,0.00,Wunderground v.1.13,2013-12-18 13:54:00,
2013-12-18 09:00:00,27.0,23.4,30.42,NW,310,0.0,0.0,86,0.00,,,0.00,Wunderground v.1.13,2013-12-18 14:00:00,
2013-12-18 09:06:00,28.0,24.1,30.42,NW,310,0.0,0.0,85,0.00,,,0.00,Wunderground v.1.13,2013-12-18 14:06:00,
2013-12-18 09:11:00,28.7,24.5,30.42,NW,310,0.0,0.0,84,0.00,,,0.00,Wunderground v.1.13,2013-12-18 14:11:00,
2013-12-18 09:17:00,29.4,24.9,30.42,NW,310,0.0,0.0,83,0.00,,,0.00,Wunderground v.1.13,2013-12-18 14:17:00,
2013-12-18 09:22:00,30.3,25.5,30.42,NW,310,0.0,0.0,82,0.00,,,0.00,Wunderground v.1.13,2013-12-18 14:22:00,
2013-12-18 09:28:00,31.4,25.9,30.42,NW,310,0.0,0.0,80,0.00,,,0.00,Wunderground v.1.13,2013-12-18 14:28:00,
2013-12-18 09:34:00,32.4,26.6,30.42,NW,310,0.0,0.0,79,0.00,,,0.00,Wunderground v.1.13,2013-12-18 14:34:00,
2013-12-18 09:39:00,33.5,27.4,30.42,NW,311,0.0,2.0,78,0.00,,,0.00,Wunderground v.1.13,2013-12-18 14:39:00,
2013-12-18 09:45:00,34.4,26.0,30.42,WNW,288,1.0,2.0,71,0.00,,,0.00,Wunderground v.1.13,2013-12-18 14:45:00,
2013-12-18 09:51:00,34.9,25.0,30.42,West,269,3.0,4.0,67,0.00,,,0.00,Wunderground v.1.13,2013-12-18 14:51:00,
2013-12-18 09:56:00,35.6,24.2,30.42,WSW,257,4.0,6.0,63,0.00,,,0.00,Wunderground v.1.13,2013-12-18 14:56:00,
2013-12-18 10:01:00,35.7,23.6,30.42,WSW,247,4.0,6.0,61,0.00,,,0.00,Wunderground v.1.13,2013-12-18 15:01:00,
2013-12-18 10:07:00,36.4,23.8,30.42,WSW,240,4.0,9.0,60,0.00,,,0.00,Wunderground v.1.13,2013-12-18 15:07:00,
2013-12-18 10:12:00,36.6,22.8,30.42,WSW,248,4.0,9.0,57,0.00,,,0.00,Wunderground v.1.13,2013-12-18 15:12:00,
2013-12-18 10:18:00,36.8,23.0,30.42,WSW,255,5.0,6.0,57,0.00,,,0.00,Wunderground v.1.13,2013-12-18 15:18:00,
2013-12-18 10:24:00,37.4,22.7,30.42,WNW,284,4.0,6.0,55,0.00,,,0.00,Wunderground v.1.13,2013-12-18 15:24:00,
2013-12-18 10:29:00,37.7,22.5,30.42,West,275,4.0,6.0,54,0.00,,,0.00,Wunderground v.1.13,2013-12-18 15:29:00,
2013-12-18 10:35:00,38.0,22.4,30.42,West,268,4.0,5.0,53,0.00,,,0.00,Wunderground v.1.13,2013-12-18 15:35:00,
2013-12-18 10:41:00,38.5,22.4,30.42,West,268,3.0,3.0,52,0.00,,,0.00,Wunderground v.1.13,2013-12-18 15:41:00,
2013-12-18 10:47:00,38.8,23.1,30.42,WSW,257,4.0,8.0,53,0.00,,,0.00,Wunderground v.1.13,2013-12-18 15:47:00,
2013-12-18 10:52:00,38.5,22.4,30.42,WSW,254,5.0,5.0,52,0.00,,,0.00,Wunderground v.1.13,2013-12-18 15:52:00,
2013-12-18 10:58:00,38.8,22.7,30.42,WNW,288,4.0,7.0,52,0.00,,,0.00,Wunderground v.1.13,2013-12-18 15:58:00,
2013-12-18 11:03:00,39.2,23.0,30.42,WNW,286,3.0,7.0,52,0.00,,,0.00,Wunderground v.1.13,2013-12-18 16:03:00,
2013-12-18 11:08:00,39.7,23.5,30.42,WNW,284,4.0,8.0,52,0.00,,,0.00,Wunderground v.1.13,2013-12-18 16:08:00,
2013-12-18 11:14:00,39.8,23.6,30.42,WNW,288,5.0,7.0,52,0.00,,,0.00,Wunderground v.1.13,2013-12-18 16:14:00,
2013-12-18 11:19:00,40.0,23.3,30.42,SW,227,4.0,9.0,51,0.00,,,0.00,Wunderground v.1.13,2013-12-18 16:19:00,
2013-12-18 11:25:00,40.0,22.8,30.42,West,276,6.0,6.0,50,0.00,,,0.00,Wunderground v.1.13,2013-12-18 16:25:00,
2013-12-18 11:31:00,40.5,23.3,30.42,WNW,282,5.0,7.0,50,0.00,,,0.00,Wunderground v.1.13,2013-12-18 16:31:00,
2013-12-18 11:36:00,40.6,23.4,30.41,WNW,290,5.0,7.0,50,0.00,,,0.00,Wunderground v.1.13,2013-12-18 16:36:00,
2013-12-18 11:42:00,40.6,22.9,30.41,WSW,239,6.0,10.0,49,0.00,,,0.00,Wunderground v.1.13,2013-12-18 16:42:00,
2013-12-18 11:47:00,40.7,23.0,30.41,WNW,290,6.0,7.0,49,0.00,,,0.00,Wunderground v.1.13,2013-12-18 16:47:00,
2013-12-18 11:53:00,40.8,22.1,30.41,WSW,251,6.0,10.0,47,0.00,,,0.00,Wunderground v.1.13,2013-12-18 16:53:00,
2013-12-18 11:58:00,40.8,22.1,30.41,West,272,6.0,10.0,47,0.00,,,0.00,Wunderground v.1.13,2013-12-18 16:58:00,
2013-12-18 12:03:00,40.9,21.7,30.41,WNW,283,7.0,9.0,46,0.00,,,0.00,Wunderground v.1.13,2013-12-18 17:03:00,
2013-12-18 12:09:00,41.1,21.9,30.41,NW,306,7.0,8.0,46,0.00,,,0.00,Wunderground v.1.13,2013-12-18 17:09:00,
2013-12-18 12:15:00,41.2,22.0,30.40,NW,305,5.0,5.0,46,0.00,,,0.00,Wunderground v.1.13,2013-12-18 17:15:00,
2013-12-18 12:20:00,41.4,23.2,30.40,West,263,6.0,9.0,48,0.00,,,0.00,Wunderground v.1.13,2013-12-18 17:20:00,
2013-12-18 12:26:00,41.8,22.5,30.40,WNW,290,7.0,7.0,46,0.00,,,0.00,Wunderground v.1.13,2013-12-18 17:26:00,
2013-12-18 12:31:00,41.8,23.0,30.40,WNW,293,6.0,7.0,47,0.00,,,0.00,Wunderground v.1.13,2013-12-18 17:31:00,
2013-12-18 12:37:00,42.2,23.4,30.40,WNW,291,6.0,7.0,47,0.00,,,0.00,Wunderground v.1.13,2013-12-18 17:37:00,
2013-12-18 12:42:00,42.7,23.3,30.40,West,279,6.0,7.0,46,0.00,,,0.00,Wunderground v.1.13,2013-12-18 17:42:00,
2013-12-18 12:48:00,42.8,23.4,30.40,WNW,285,6.0,7.0,46,0.00,,,0.00,Wunderground v.1.13,2013-12-18 17:48:00,
2013-12-18 12:53:00,42.9,23.0,30.40,WNW,285,5.0,13.0,45,0.00,,,0.00,Wunderground v.1.13,2013-12-18 17:53:00,
2013-12-18 12:59:00,42.9,22.5,30.40,WNW,297,6.0,12.0,44,0.00,,,0.00,Wunderground v.1.13,2013-12-18 17:59:00,
2013-12-18 13:04:00,43.1,23.2,30.40,West,265,6.0,10.0,45,0.00,,,0.00,Wunderground v.1.13,2013-12-18 18:04:00,
2013-12-18 13:09:00,43.0,23.1,30.39,West,278,6.0,7.0,45,0.00,,,0.00,Wunderground v.1.13,2013-12-18 18:09:00,
2013-12-18 13:15:00,43.3,23.4,30.39,WNW,291,6.0,6.0,45,0.00,,,0.00,Wunderground v.1.13,2013-12-18 18:15:00,
2013-12-18 13:21:00,43.6,23.6,30.39,SW,217,6.0,6.0,45,0.00,,,0.00,Wunderground v.1.13,2013-12-18 18:21:00,
2013-12-18 13:26:00,43.8,23.3,30.39,West,273,5.0,6.0,44,0.00,,,0.00,Wunderground v.1.13,2013-12-18 18:26:00,
2013-12-18 13:32:00,44.0,23.5,30.39,West,259,5.0,5.0,44,0.00,,,0.00,Wunderground v.1.13,2013-12-18 18:32:00,
2013-12-18 13:38:00,44.0,23.5,30.39,WNW,282,6.0,11.0,44,0.00,,,0.00,Wunderground v.1.13,2013-12-18 18:38:00,
2013-12-18 13:43:00,44.2,23.6,30.39,WNW,285,6.0,9.0,44,0.00,,,0.00,Wunderground v.1.13,2013-12-18 18:43:00,
2013-12-18 13:49:00,44.2,23.1,30.38,WNW,283,7.0,8.0,43,0.00,,,0.00,Wunderground v.1.13,2013-12-18 18:49:00,
2013-12-18 13:55:00,44.6,23.5,30.38,West,278,6.0,6.0,43,0.00,,,0.00,Wunderground v.1.13,2013-12-18 18:55:00,
2013-12-18 14:00:00,44.7,23.0,30.38,WSW,248,4.0,7.0,42,0.00,,,0.00,Wunderground v.1.13,2013-12-18 19:00:00,
2013-12-18 14:05:00,44.6,23.5,30.38,WSW,256,4.0,5.0,43,0.00,,,0.00,Wunderground v.1.13,2013-12-18 19:05:00,
2013-12-18 14:11:00,44.7,23.5,30.38,West,274,5.0,9.0,43,0.00,,,0.00,Wunderground v.1.13,2013-12-18 19:11:00,
2013-12-18 14:17:00,44.6,23.5,30.38,WNW,290,7.0,12.0,43,0.00,,,0.00,Wunderground v.1.13,2013-12-18 19:17:00,
2013-12-18 14:22:00,44.6,23.5,30.38,WNW,282,7.0,8.0,43,0.00,,,0.00,Wunderground v.1.13,2013-12-18 19:22:00,
2013-12-18 14:28:00,44.9,23.2,30.38,West,280,6.0,9.0,42,0.00,,,0.00,Wunderground v.1.13,2013-12-18 19:28:00,
2013-12-18 14:33:00,45.0,22.7,30.38,West,267,6.0,10.0,41,0.00,,,0.00,Wunderground v.1.13,2013-12-18 19:33:00,
2013-12-18 14:38:00,45.0,23.3,30.38,West,266,5.0,7.0,42,0.00,,,0.00,Wunderground v.1.13,2013-12-18 19:38:00,
2013-12-18 14:44:00,45.0,23.3,30.38,SW,230,6.0,9.0,42,0.00,,,0.00,Wunderground v.1.13,2013-12-18 19:44:00,
2013-12-18 14:50:00,45.0,22.7,30.37,WNW,288,6.0,6.0,41,0.00,,,0.00,Wunderground v.1.13,2013-12-18 19:50:00,
2013-12-18 14:55:00,45.0,22.7,30.37,West,277,6.0,6.0,41,0.00,,,0.00,Wunderground v.1.13,2013-12-18 19:55:00,
2013-12-18 15:01:00,45.0,22.7,30.37,West,273,6.0,6.0,41,0.00,,,0.00,Wunderground v.1.13,2013-12-18 20:01:00,
2013-12-18 15:06:00,45.1,22.8,30.37,West,277,6.0,6.0,41,0.00,,,0.00,Wunderground v.1.13,2013-12-18 20:06:00,
2013-12-18 15:11:00,45.1,22.2,30.38,West,276,6.0,12.0,40,0.00,,,0.00,Wunderground v.1.13,2013-12-18 20:11:00,
2013-12-18 15:17:00,45.1,22.8,30.38,WNW,286,6.0,6.0,41,0.00,,,0.00,Wunderground v.1.13,2013-12-18 20:17:00,
2013-12-18 15:23:00,45.1,22.2,30.38,WNW,282,5.0,6.0,40,0.00,,,0.00,Wunderground v.1.13,2013-12-18 20:23:00,
2013-12-18 15:28:00,45.2,22.9,30.37,WNW,283,5.0,8.0,41,0.00,,,0.00,Wunderground v.1.13,2013-12-18 20:28:00,
2013-12-18 15:34:00,45.3,21.8,30.37,WSW,256,5.0,10.0,39,0.00,,,0.00,Wunderground v.1.13,2013-12-18 20:34:00,
2013-12-18 15:40:00,45.3,22.4,30.37,West,281,5.0,7.0,40,0.00,,,0.00,Wunderground v.1.13,2013-12-18 20:40:00,
2013-12-18 15:45:00,45.2,21.7,30.37,West,259,5.0,5.0,39,0.00,,,0.00,Wunderground v.1.13,2013-12-18 20:45:00,
2013-12-18 15:51:00,45.2,22.3,30.37,West,280,5.0,5.0,40,0.00,,,0.00,Wunderground v.1.13,2013-12-18 20:51:00,
2013-12-18 15:57:00,45.2,22.3,30.37,WNW,290,5.0,5.0,40,0.00,,,0.00,Wunderground v.1.13,2013-12-18 20:57:00,
2013-12-18 16:02:00,45.2,21.7,30.37,West,280,4.0,4.0,39,0.00,,,0.00,Wunderground v.1.13,2013-12-18 21:02:00,
2013-12-18 16:07:00,45.2,21.7,30.37,WNW,284,3.0,7.0,39,0.00,,,0.00,Wunderground v.1.13,2013-12-18 21:07:00,
2013-12-18 16:13:00,45.1,22.2,30.37,West,275,5.0,6.0,40,0.00,,,0.00,Wunderground v.1.13,2013-12-18 21:13:00,
2013-12-18 16:18:00,45.0,22.7,30.37,West,276,5.0,5.0,41,0.00,,,0.00,Wunderground v.1.13,2013-12-18 21:18:00,
2013-12-18 16:24:00,44.9,21.4,30.37,West,269,3.0,6.0,39,0.00,,,0.00,Wunderground v.1.13,2013-12-18 21:24:00,
2013-12-18 16:30:00,44.9,22.0,30.37,WNW,283,3.0,4.0,40,0.00,,,0.00,Wunderground v.1.13,2013-12-18 21:30:00,
2013-12-18 16:35:00,44.8,22.5,30.37,WNW,282,2.0,2.0,41,0.00,,,0.00,Wunderground v.1.13,2013-12-18 21:35:00,
2013-12-18 16:40:00,44.7,22.4,30.37,WNW,282,2.0,2.0,41,0.00,,,0.00,Wunderground v.1.13,2013-12-18 21:40:00,
2013-12-18 16:46:00,44.5,22.2,30.37,WNW,282,2.0,4.0,41,0.00,,,0.00,Wunderground v.1.13,2013-12-18 21:46:00,
2013-12-18 16:51:00,44.3,22.1,30.37,WNW,282,2.0,4.0,41,0.00,,,0.00,Wunderground v.1.13,2013-12-18 21:51:00,
2013-12-18 16:57:00,43.9,22.3,30.37,WNW,282,2.0,2.0,42,0.00,,,0.00,Wunderground v.1.13,2013-12-18 21:57:00,
2013-12-18 17:02:00,43.6,22.5,30.37,WNW,282,1.0,2.0,43,0.00,,,0.00,Wunderground v.1.13,2013-12-18 22:02:00,
2013-12-18 17:07:00,43.3,22.3,30.37,WNW,282,1.0,1.0,43,0.00,,,0.00,Wunderground v.1.13,2013-12-18 22:07:00,
2013-12-18 17:14:00,42.8,22.4,30.36,WNW,282,0.0,0.0,44,0.00,,,0.00,Wunderground v.1.13,2013-12-18 22:14:00,
2013-12-18 17:19:00,42.3,23.0,30.36,WNW,282,0.0,0.0,46,0.00,,,0.00,Wunderground v.1.13,2013-12-18 22:19:00,
2013-12-18 17:25:00,41.8,23.0,30.37,WNW,282,0.0,0.0,47,0.00,,,0.00,Wunderground v.1.13,2013-12-18 22:25:00,
2013-12-18 17:31:00,41.2,22.0,30.36,WNW,282,0.0,0.0,46,0.00,,,0.00,Wunderground v.1.13,2013-12-18 22:31:00,
2013-12-18 17:37:00,40.5,22.8,30.36,WNW,282,0.0,0.0,49,0.00,,,0.00,Wunderground v.1.13,2013-12-18 22:37:00,
2013-12-18 17:42:00,39.9,22.7,30.36,WNW,282,0.0,0.0,50,0.00,,,0.00,Wunderground v.1.13,2013-12-18 22:42:00,
2013-12-18 17:48:00,39.0,23.3,30.37,WNW,282,0.0,0.0,53,0.00,,,0.00,Wunderground v.1.13,2013-12-18 22:48:00,
2013-12-18 17:53:00,38.3,23.1,30.37,WNW,282,0.0,0.0,54,0.00,,,0.00,Wunderground v.1.13,2013-12-18 22:53:00,
2013-12-18 17:59:00,37.4,22.7,30.37,WNW,282,0.0,0.0,55,0.00,,,0.00,Wunderground v.1.13,2013-12-18 22:59:00,
2013-12-18 18:05:00,36.6,22.8,30.36,WNW,282,0.0,0.0,57,0.00,,,0.00,Wunderground v.1.13,2013-12-18 23:05:00,
2013-12-18 18:11:00,35.8,22.5,30.36,WNW,282,0.0,0.0,58,0.00,,,0.00,Wunderground v.1.13,2013-12-18 23:11:00,
2013-12-18 18:16:00,35.0,22.5,30.36,WNW,282,0.0,0.0,60,0.00,,,0.00,Wunderground v.1.13,2013-12-18 23:16:00,
2013-12-18 18:22:00,34.4,22.7,30.36,WNW,282,0.0,0.0,62,0.00,,,0.00,Wunderground v.1.13,2013-12-18 23:22:00,
2013-12-18 18:28:00,33.8,22.1,30.36,WNW,282,0.0,0.0,62,0.00,,,0.00,Wunderground v.1.13,2013-12-18 23:28:00,
2013-12-18 18:34:00,33.3,22.4,30.36,WNW,282,0.0,0.0,64,0.00,,,0.00,Wunderground v.1.13,2013-12-18 23:34:00,
2013-12-18 18:39:00,32.8,22.3,30.36,WNW,282,0.0,0.0,65,0.00,,,0.00,Wunderground v.1.13,2013-12-18 23:39:00,
2013-12-18 18:45:00,32.4,21.9,30.36,WNW,282,0.0,0.0,65,0.00,,,0.00,Wunderground v.1.13,2013-12-18 23:45:00,
2013-12-18 18:50:00,31.8,22.1,30.36,WNW,282,0.0,0.0,67,0.00,,,0.00,Wunderground v.1.13,2013-12-18 23:50:00,
2013-12-18 18:56:00,31.1,21.4,30.36,WNW,282,0.0,0.0,67,0.00,,,0.00,Wunderground v.1.13,2013-12-18 23:56:00,
2013-12-18 19:02:00,30.6,21.3,30.37,WNW,282,0.0,0.0,68,0.00,,,0.00,Wunderground v.1.13,2013-12-19 00:02:00,
2013-12-18 19:08:00,30.3,21.3,30.37,WNW,282,0.0,0.0,69,0.00,,,0.00,Wunderground v.1.13,2013-12-19 00:08:00,
2013-12-18 19:13:00,30.1,21.2,30.37,WNW,282,0.0,0.0,69,0.00,,,0.00,Wunderground v.1.13,2013-12-19 00:13:00,
2013-12-18 19:19:00,29.8,21.2,30.37,WNW,282,0.0,0.0,70,0.00,,,0.00,Wunderground v.1.13,2013-12-19 00:19:00,
2013-12-18 19:24:00,29.6,21.3,30.37,WNW,282,0.0,0.0,71,0.00,,,0.00,Wunderground v.1.13,2013-12-19 00:24:00,
2013-12-18 19:30:00,29.4,21.5,30.37,WNW,282,0.0,0.0,72,0.00,,,0.00,Wunderground v.1.13,2013-12-19 00:30:00,
2013-12-18 19:36:00,29.2,21.3,30.37,WNW,282,0.0,0.0,72,0.00,,,0.00,Wunderground v.1.13,2013-12-19 00:36:00,
2013-12-18 19:42:00,28.9,21.3,30.37,WNW,282,0.0,0.0,73,0.00,,,0.00,Wunderground v.1.13,2013-12-19 00:42:00,
2013-12-18 19:47:00,28.6,21.0,30.37,WNW,282,0.0,0.0,73,0.00,,,0.00,Wunderground v.1.13,2013-12-19 00:47:00,
2013-12-18 19:53:00,28.4,21.2,30.37,WNW,282,0.0,0.0,74,0.00,,,0.00,Wunderground v.1.13,2013-12-19 00:53:00,
2013-12-18 19:58:00,28.2,21.0,30.37,WNW,282,0.0,0.0,74,0.00,,,0.00,Wunderground v.1.13,2013-12-19 00:58:00,
2013-12-18 20:03:00,28.1,20.9,30.37,WNW,282,0.0,0.0,74,0.00,,,0.00,Wunderground v.1.13,2013-12-19 01:03:00,
2013-12-18 20:09:00,27.9,21.0,30.37,WNW,282,0.0,0.0,75,0.00,,,0.00,Wunderground v.1.13,2013-12-19 01:09:00,
2013-12-18 20:15:00,27.8,20.9,30.37,WNW,282,0.0,0.0,75,0.00,,,0.00,Wunderground v.1.13,2013-12-19 01:15:00,
2013-12-18 20:20:00,27.7,21.1,30.38,WNW,282,0.0,0.0,76,0.00,,,0.00,Wunderground v.1.13,2013-12-19 01:20:00,
2013-12-18 20:26:00,27.6,21.0,30.38,WNW,282,0.0,0.0,76,0.00,,,0.00,Wunderground v.1.13,2013-12-19 01:26:00,
2013-12-18 20:31:00,27.5,20.9,30.38,WNW,282,0.0,0.0,76,0.00,,,0.00,Wunderground v.1.13,2013-12-19 01:31:00,
2013-12-18 20:37:00,27.4,20.8,30.38,WNW,282,0.0,0.0,76,0.00,,,0.00,Wunderground v.1.13,2013-12-19 01:37:00,
2013-12-18 20:43:00,27.2,20.9,30.38,WNW,282,0.0,0.0,77,0.00,,,0.00,Wunderground v.1.13,2013-12-19 01:43:00,
2013-12-18 20:48:00,27.1,20.8,30.38,WNW,282,0.0,0.0,77,0.00,,,0.00,Wunderground v.1.13,2013-12-19 01:48:00,
2013-12-18 20:54:00,27.0,20.7,30.38,WNW,282,0.0,0.0,77,0.00,,,0.00,Wunderground v.1.13,2013-12-19 01:54:00,
2013-12-18 21:00:00,26.9,20.7,30.38,WNW,282,0.0,0.0,77,0.00,,,0.00,Wunderground v.1.13,2013-12-19 02:00:00,
2013-12-18 21:05:00,26.7,20.8,30.38,WNW,282,0.0,0.0,78,0.00,,,0.00,Wunderground v.1.13,2013-12-19 02:05:00,
2013-12-18 21:10:00,26.6,20.7,30.38,WNW,282,0.0,0.0,78,0.00,,,0.00,Wunderground v.1.13,2013-12-19 02:10:00,
2013-12-18 21:16:00,26.5,20.6,30.38,WNW,282,0.0,0.0,78,0.00,,,0.00,Wunderground v.1.13,2013-12-19 02:16:00,
2013-12-18 21:21:00,26.3,20.4,30.38,WNW,282,0.0,0.0,78,0.00,,,0.00,Wunderground v.1.13,2013-12-19 02:21:00,
2013-12-18 21:27:00,26.2,20.3,30.38,WNW,282,0.0,0.0,78,0.00,,,0.00,Wunderground v.1.13,2013-12-19 02:27:00,
2013-12-18 21:32:00,26.1,20.5,30.38,WNW,282,0.0,0.0,79,0.00,,,0.00,Wunderground v.1.13,2013-12-19 02:32:00,
2013-12-18 21:38:00,26.0,20.4,30.38,WNW,282,0.0,0.0,79,0.00,,,0.00,Wunderground v.1.13,2013-12-19 02:38:00,
2013-12-18 21:43:00,25.9,20.3,30.39,WNW,282,0.0,0.0,79,0.00,,,0.00,Wunderground v.1.13,2013-12-19 02:43:00,
2013-12-18 21:49:00,25.8,20.2,30.39,WNW,282,0.0,0.0,79,0.00,,,0.00,Wunderground v.1.13,2013-12-19 02:49:00,
2013-12-18 21:55:00,25.6,20.3,30.38,WNW,282,0.0,0.0,80,0.00,,,0.00,Wunderground v.1.13,2013-12-19 02:55:00,
2013-12-18 22:00:00,25.5,20.2,30.38,WNW,282,0.0,0.0,80,0.00,,,0.00,Wunderground v.1.13,2013-12-19 03:00:00,
2013-12-18 22:05:00,25.4,20.1,30.38,WNW,282,0.0,0.0,80,0.00,,,0.00,Wunderground v.1.13,2013-12-19 03:05:00,
2013-12-18 22:11:00,25.3,20.0,30.38,WNW,282,0.0,0.0,80,0.00,,,0.00,Wunderground v.1.13,2013-12-19 03:11:00,
2013-12-18 22:16:00,25.2,20.2,30.38,WNW,282,0.0,0.0,81,0.00,,,0.00,Wunderground v.1.13,2013-12-19 03:16:00,
2013-12-18 22:22:00,25.2,20.2,30.38,WNW,282,0.0,0.0,81,0.00,,,0.00,Wunderground v.1.13,2013-12-19 03:22:00,
2013-12-18 22:27:00,25.1,20.1,30.38,WNW,282,0.0,0.0,81,0.00,,,0.00,Wunderground v.1.13,2013-12-19 03:27:00,
2013-12-18 22:33:00,25.0,20.3,30.39,WNW,282,0.0,0.0,82,0.00,,,0.00,Wunderground v.1.13,2013-12-19 03:33:00,
2013-12-18 22:39:00,24.9,20.2,30.39,WNW,282,0.0,0.0,82,0.00,,,0.00,Wunderground v.1.13,2013-12-19 03:39:00,
2013-12-18 22:45:00,24.7,20.0,30.39,WNW,282,0.0,0.0,82,0.00,,,0.00,Wunderground v.1.13,2013-12-19 03:45:00,
2013-12-18 22:50:00,24.5,19.8,30.39,WNW,282,0.0,0.0,82,0.00,,,0.00,Wunderground v.1.13,2013-12-19 03:50:00,
2013-12-18 22:56:00,24.4,19.7,30.39,WNW,282,0.0,0.0,82,0.00,,,0.00,Wunderground v.1.13,2013-12-19 03:56:00,
2013-12-18 23:01:00,24.2,19.5,30.39,WNW,282,0.0,0.0,82,0.00,,,0.00,Wunderground v.1.13,2013-12-19 04:01:00,
2013-12-18 23:07:00,24.1,19.4,30.39,WNW,282,0.0,0.0,82,0.00,,,0.00,Wunderground v.1.13,2013-12-19 04:07:00,
2013-12-18 23:13:00,24.0,19.3,30.38,WNW,282,0.0,0.0,82,0.00,,,0.00,Wunderground v.1.13,2013-12-19 04:13:00,
2013-12-18 23:19:00,23.8,19.1,30.39,WNW,282,0.0,0.0,82,0.00,,,0.00,Wunderground v.1.13,2013-12-19 04:19:00,
2013-12-18 23:24:00,23.8,19.4,30.39,WNW,282,0.0,0.0,83,0.00,,,0.00,Wunderground v.1.13,2013-12-19 04:24:00,
2013-12-18 23:30:00,23.7,19.3,30.38,WNW,282,0.0,0.0,83,0.00,,,0.00,Wunderground v.1.13,2013-12-19 04:30:00,
2013-12-18 23:35:00,23.6,19.2,30.38,WNW,282,0.0,0.0,83,0.00,,,0.00,Wunderground v.1.13,2013-12-19 04:35:00,
2013-12-18 23:40:00,23.4,19.0,30.38,WNW,282,0.0,0.0,83,0.00,,,0.00,Wunderground v.1.13,2013-12-19 04:40:00,
2013-12-18 23:46:00,23.5,19.4,30.39,WNW,282,0.0,0.0,84,0.00,,,0.00,Wunderground v.1.13,2013-12-19 04:46:00,
2013-12-18 23:52:00,23.5,19.4,30.39,WNW,282,0.0,0.0,84,0.00,,,0.00,Wunderground v.1.13,2013-12-19 04:52:00,
2013-12-18 23:57:00,23.3,19.2,30.39,WNW,282,0.0,0.0,84,0.00,,,0.00,Wunderground v.1.13,2013-12-19 04:57:00,